createdAt,value
2018-06-05T00:00:33.133Z,26.10
2018-06-05T00:01:33.069Z,27.90
2018-06-05T00:03:26.293Z,26.80
2018-06-05T00:04:26.201Z,26.50
2018-06-05T00:06:19.023Z,25.60
2018-06-05T00:07:18.917Z,25.60
2018-06-05T00:09:11.679Z,25.60
2018-06-05T00:10:11.571Z,26.60
2018-06-05T00:12:04.462Z,25.00
2018-06-05T00:13:04.320Z,25.20
2018-06-05T00:14:57.157Z,24.10
2018-06-05T00:15:57.067Z,23.80
2018-06-05T00:17:49.832Z,24.70
2018-06-05T00:18:49.742Z,25.40
2018-06-05T00:20:43.150Z,25.60
2018-06-05T00:21:42.877Z,24.50
2018-06-05T00:23:35.710Z,24.00
2018-06-05T00:24:35.622Z,24.00
2018-06-05T00:26:28.406Z,23.40
2018-06-05T00:27:28.305Z,23.90
2018-06-05T00:29:21.631Z,24.30
2018-06-05T00:30:21.537Z,23.50
2018-06-05T00:32:14.306Z,24.20
2018-06-05T00:33:14.205Z,24.20
2018-06-05T00:35:07.025Z,24.30
2018-06-05T00:36:06.929Z,25.90
2018-06-05T00:37:59.692Z,26.30
2018-06-05T00:38:59.580Z,26.10
2018-06-05T00:40:52.443Z,26.30
2018-06-05T00:41:52.340Z,26.40
2018-06-05T00:43:45.095Z,26.70
2018-06-05T00:44:44.997Z,26.20
2018-06-05T00:46:37.862Z,26.10
2018-06-05T00:47:37.743Z,25.60
2018-06-05T00:49:31.015Z,27.10
2018-06-05T00:50:30.912Z,26.90
2018-06-05T00:52:23.760Z,26.20
2018-06-05T00:53:23.638Z,26.30
2018-06-05T00:55:16.408Z,27.10
2018-06-05T00:56:16.279Z,28.00
2018-06-05T00:58:09.155Z,26.40
2018-06-05T00:59:09.032Z,28.00
2018-06-05T01:01:01.809Z,27.80
2018-06-05T01:02:01.688Z,28.70
2018-06-05T01:03:54.546Z,29.40
2018-06-05T01:04:54.430Z,29.00
2018-06-05T01:06:47.312Z,29.40
2018-06-05T01:07:47.198Z,28.30
2018-06-05T01:09:40.947Z,28.50
2018-06-05T01:10:40.853Z,28.40
2018-06-05T01:12:34.126Z,27.60
2018-06-05T01:13:34.023Z,28.40
2018-06-05T01:15:26.883Z,28.30
2018-06-05T01:16:26.662Z,30.00
2018-06-05T01:18:19.541Z,30.50
2018-06-05T01:19:19.431Z,30.80
2018-06-05T01:21:12.677Z,33.10
2018-06-05T01:22:12.561Z,32.80
2018-06-05T01:24:05.448Z,32.80
2018-06-05T01:25:05.303Z,31.50
2018-06-05T01:26:58.156Z,32.10
2018-06-05T01:27:58.065Z,33.10
2018-06-05T01:29:50.927Z,32.40
2018-06-05T01:30:50.806Z,33.90
2018-06-05T01:32:43.553Z,33.70
2018-06-05T01:33:43.468Z,33.20
2018-06-05T01:35:36.833Z,32.50
2018-06-05T01:36:36.298Z,32.80
2018-06-05T01:38:28.990Z,32.40
2018-06-05T01:39:28.937Z,31.90
2018-06-05T01:41:21.765Z,33.40
2018-06-05T01:42:21.603Z,34.20
2018-06-05T01:44:14.972Z,31.60
2018-06-05T01:45:14.257Z,32.10
2018-06-05T01:47:07.137Z,32.40
2018-06-05T01:48:07.027Z,31.90
2018-06-05T01:49:59.837Z,30.80
2018-06-05T01:50:59.742Z,30.70
2018-06-05T01:52:52.509Z,32.60
2018-06-05T01:53:52.401Z,31.00
2018-06-05T01:55:45.142Z,30.50
2018-06-05T01:56:45.045Z,30.40
2018-06-05T01:58:37.895Z,30.50
2018-06-05T01:59:37.791Z,31.00
2018-06-05T02:01:30.535Z,30.70
2018-06-05T02:02:30.444Z,30.50
2018-06-05T02:04:23.305Z,30.80
2018-06-05T02:05:23.204Z,30.50
2018-06-05T02:07:15.972Z,30.20
2018-06-05T02:08:15.855Z,30.40
2018-06-05T02:10:08.705Z,30.60
2018-06-05T02:11:08.586Z,29.80
2018-06-05T02:13:01.343Z,31.20
2018-06-05T02:14:01.238Z,30.60
2018-06-05T02:15:54.079Z,30.90
2018-06-05T02:16:54.003Z,30.20
2018-06-05T02:18:46.837Z,30.40
2018-06-05T02:19:46.738Z,31.10
2018-06-05T02:21:39.477Z,31.60
2018-06-05T02:22:39.390Z,31.30
2018-06-05T02:24:32.249Z,30.10
2018-06-05T02:25:32.127Z,30.90
2018-06-05T02:27:24.998Z,30.70
2018-06-05T02:28:24.901Z,31.40
2018-06-05T02:30:17.745Z,30.90
2018-06-05T02:31:17.657Z,30.20
2018-06-05T02:33:10.375Z,30.80
2018-06-05T02:34:10.287Z,29.70
2018-06-05T02:36:03.142Z,29.90
2018-06-05T02:37:03.058Z,29.90
2018-06-05T02:38:55.792Z,30.40
2018-06-05T02:39:55.688Z,28.90
2018-06-05T02:41:48.539Z,30.30
2018-06-05T02:42:48.426Z,29.00
2018-06-05T02:44:41.795Z,28.70
2018-06-05T02:45:41.617Z,28.80
2018-06-05T02:47:34.344Z,27.40
2018-06-05T02:48:34.236Z,27.70
2018-06-05T02:50:27.065Z,27.60
2018-06-05T02:51:26.975Z,27.00
2018-06-05T02:53:19.744Z,26.80
2018-06-05T02:54:19.639Z,27.20
2018-06-05T02:56:12.408Z,26.40
2018-06-05T02:57:12.336Z,26.10
2018-06-05T02:59:05.037Z,27.50
2018-06-05T03:00:04.941Z,27.40
2018-06-05T03:01:57.780Z,26.70
2018-06-05T03:02:57.688Z,26.00
2018-06-05T03:04:50.432Z,27.50
2018-06-05T03:05:50.336Z,27.60
2018-06-05T03:07:43.187Z,28.70
2018-06-05T03:08:43.080Z,28.90
2018-06-05T03:10:35.832Z,28.60
2018-06-05T03:11:35.709Z,27.80
2018-06-05T03:13:28.992Z,28.60
2018-06-05T03:14:28.889Z,28.50
2018-06-05T03:16:21.744Z,28.60
2018-06-05T03:17:21.629Z,29.10
2018-06-05T03:19:14.379Z,29.60
2018-06-05T03:20:14.271Z,31.00
2018-06-05T03:22:07.111Z,29.40
2018-06-05T03:23:07.015Z,30.00
2018-06-05T03:24:59.789Z,30.90
2018-06-05T03:25:59.677Z,29.90
2018-06-05T03:27:52.951Z,29.70
2018-06-05T03:28:52.837Z,30.60
2018-06-05T03:30:45.588Z,30.10
2018-06-05T03:31:45.503Z,30.70
2018-06-05T03:33:38.223Z,30.10
2018-06-05T03:34:38.129Z,30.00
2018-06-05T03:36:30.887Z,28.70
2018-06-05T03:37:30.771Z,28.50
2018-06-05T03:39:23.512Z,28.90
2018-06-05T03:40:23.417Z,28.10
2018-06-05T03:42:16.175Z,29.00
2018-06-05T03:43:16.077Z,28.50
2018-06-05T03:45:08.922Z,28.50
2018-06-05T03:46:08.714Z,28.50
2018-06-05T03:48:01.593Z,29.00
2018-06-05T03:49:01.459Z,28.30
2018-06-05T03:50:54.779Z,26.90
2018-06-05T03:51:54.632Z,27.60
2018-06-05T03:53:47.454Z,29.10
2018-06-05T03:54:47.362Z,28.30
2018-06-05T03:56:40.143Z,28.40
2018-06-05T03:57:40.032Z,28.60
2018-06-05T03:59:32.886Z,28.70
2018-06-05T04:00:32.771Z,29.60
2018-06-05T04:02:25.619Z,29.40
2018-06-05T04:03:25.513Z,28.80
2018-06-05T04:05:18.368Z,28.10
2018-06-05T04:06:18.190Z,27.80
2018-06-05T04:08:10.949Z,30.30
2018-06-05T04:09:10.811Z,29.80
2018-06-05T04:11:05.172Z,30.10
2018-06-05T04:12:04.078Z,30.20
2018-06-05T04:13:56.959Z,31.10
2018-06-05T04:14:56.721Z,32.90
2018-06-05T04:16:51.227Z,29.60
2018-06-05T04:17:49.470Z,30.80
2018-06-05T04:19:42.310Z,32.40
2018-06-05T04:20:42.215Z,31.80
2018-06-05T04:22:34.991Z,31.60
2018-06-05T04:23:34.896Z,31.80
2018-06-05T04:25:27.629Z,30.80
2018-06-05T04:26:27.515Z,31.50
2018-06-05T04:28:20.401Z,30.90
2018-06-05T04:29:20.274Z,30.60
2018-06-05T04:31:13.002Z,30.30
2018-06-05T04:32:12.920Z,30.20
2018-06-05T04:34:06.217Z,30.30
2018-06-05T04:35:06.070Z,29.20
2018-06-05T04:36:59.314Z,29.80
2018-06-05T04:37:59.230Z,31.20
2018-06-05T04:39:52.092Z,31.80
2018-06-05T04:40:51.975Z,30.90
2018-06-05T04:42:44.736Z,31.40
2018-06-05T04:43:44.622Z,32.80
2018-06-05T04:45:37.463Z,31.40
2018-06-05T04:46:37.365Z,32.10
2018-06-05T04:48:30.130Z,32.20
2018-06-05T04:49:30.037Z,31.50
2018-06-05T04:51:22.869Z,30.90
2018-06-05T04:52:22.672Z,31.80
2018-06-05T04:54:15.942Z,30.80
2018-06-05T04:55:15.826Z,30.90
2018-06-05T04:57:09.181Z,32.00
2018-06-05T04:58:09.103Z,31.10
2018-06-05T05:00:01.841Z,30.50
2018-06-05T05:01:01.738Z,30.60
2018-06-05T05:02:54.489Z,30.60
2018-06-05T05:03:54.373Z,31.20
2018-06-05T05:05:47.250Z,29.60
2018-06-05T05:06:47.133Z,29.90
2018-06-05T05:08:39.987Z,31.40
2018-06-05T05:09:39.899Z,31.50
2018-06-05T05:11:32.744Z,31.60
2018-06-05T05:12:32.632Z,33.00
2018-06-05T05:14:25.401Z,32.10
2018-06-05T05:15:25.282Z,33.90
2018-06-05T05:17:18.128Z,33.00
2018-06-05T05:18:18.049Z,31.70
2018-06-05T05:20:10.894Z,30.40
2018-06-05T05:21:10.672Z,30.50
2018-06-05T05:23:03.422Z,31.10
2018-06-05T05:24:03.323Z,31.70
2018-06-05T05:25:56.197Z,32.20
2018-06-05T05:26:56.078Z,31.80
2018-06-05T05:28:48.916Z,33.30
2018-06-05T05:29:48.820Z,33.90
2018-06-05T05:31:42.190Z,32.80
2018-06-05T05:32:41.982Z,32.80
2018-06-05T05:34:34.825Z,33.20
2018-06-05T05:35:34.727Z,33.40
2018-06-05T05:37:27.571Z,33.70
2018-06-05T05:38:27.481Z,33.30
2018-06-05T05:40:20.348Z,32.90
2018-06-05T05:41:20.247Z,33.00
2018-06-05T05:43:13.075Z,34.60
2018-06-05T05:44:12.989Z,30.90
2018-06-05T05:46:05.751Z,32.20
2018-06-05T05:47:05.708Z,31.30
2018-06-05T05:48:58.473Z,30.60
2018-06-05T05:49:58.275Z,30.60
2018-06-05T05:51:51.047Z,31.50
2018-06-05T05:52:50.917Z,31.30
2018-06-05T05:54:43.846Z,31.40
2018-06-05T05:55:43.688Z,32.00
2018-06-05T05:57:36.545Z,32.20
2018-06-05T05:58:36.419Z,31.80
2018-06-05T06:00:29.299Z,32.30
2018-06-05T06:01:29.171Z,30.50
2018-06-05T06:03:22.008Z,30.10
2018-06-05T06:04:21.921Z,31.10
2018-06-05T06:06:14.783Z,32.40
2018-06-05T06:07:14.699Z,32.30
2018-06-05T06:09:07.405Z,33.30
2018-06-05T06:10:07.314Z,32.80
2018-06-05T06:12:00.191Z,31.40
2018-06-05T06:13:00.088Z,31.90
2018-06-05T06:14:52.829Z,31.60
2018-06-05T06:15:52.711Z,30.70
2018-06-05T06:17:45.476Z,29.90
2018-06-05T06:18:45.361Z,30.60
2018-06-05T06:20:38.096Z,31.30
2018-06-05T06:21:38.008Z,32.40
2018-06-05T06:23:30.866Z,30.50
2018-06-05T06:24:30.698Z,31.10
2018-06-05T06:26:23.433Z,28.60
2018-06-05T06:27:23.308Z,29.10
2018-06-05T06:29:16.147Z,29.50
2018-06-05T06:30:16.046Z,29.80
2018-06-05T06:32:08.814Z,28.80
2018-06-05T06:33:08.717Z,28.50
2018-06-05T06:35:01.465Z,28.50
2018-06-05T06:36:01.344Z,30.70
2018-06-05T06:37:54.101Z,28.90
2018-06-05T06:38:53.992Z,29.30
2018-06-05T06:40:46.827Z,28.70
2018-06-05T06:41:46.741Z,28.30
2018-06-05T06:43:39.509Z,29.20
2018-06-05T06:44:39.384Z,29.00
2018-06-05T06:46:32.131Z,29.50
2018-06-05T06:47:32.038Z,30.90
2018-06-05T06:49:24.898Z,28.80
2018-06-05T06:50:24.788Z,28.80
2018-06-05T06:52:17.549Z,29.70
2018-06-05T06:53:17.431Z,28.50
2018-06-05T06:55:10.272Z,29.30
2018-06-05T06:56:10.177Z,29.30
2018-06-05T06:58:02.940Z,28.90
2018-06-05T06:59:02.848Z,28.90
2018-06-05T07:00:55.686Z,30.50
2018-06-05T07:01:55.474Z,29.40
2018-06-05T07:03:48.247Z,28.80
2018-06-05T07:04:48.120Z,29.50
2018-06-05T07:06:40.966Z,28.70
2018-06-05T07:07:40.874Z,27.70
2018-06-05T07:09:33.650Z,28.20
2018-06-05T07:10:33.519Z,28.10
2018-06-05T07:12:26.256Z,28.90
2018-06-05T07:13:26.161Z,27.60
2018-06-05T07:15:18.956Z,27.50
2018-06-05T07:16:18.835Z,27.30
2018-06-05T07:18:11.603Z,28.40
2018-06-05T07:19:11.460Z,25.70
2018-06-05T07:21:04.340Z,27.20
2018-06-05T07:22:04.122Z,29.10
2018-06-05T07:23:57.004Z,26.20
2018-06-05T07:24:56.872Z,27.60
2018-06-05T07:26:49.632Z,28.30
2018-06-05T07:27:49.503Z,26.80
2018-06-05T07:29:42.248Z,27.30
2018-06-05T07:30:42.157Z,28.80
2018-06-05T07:32:35.017Z,26.80
2018-06-05T07:33:34.898Z,27.30
2018-06-05T07:35:27.647Z,26.70
2018-06-05T07:36:27.543Z,25.80
2018-06-05T07:38:20.331Z,26.30
2018-06-05T07:39:20.208Z,25.60
2018-06-05T07:41:13.039Z,26.60
2018-06-05T07:42:12.952Z,25.90
2018-06-05T07:44:05.825Z,24.60
2018-06-05T07:45:05.696Z,25.70
2018-06-05T07:46:58.461Z,25.00
2018-06-05T07:47:58.338Z,25.70
2018-06-05T07:49:51.102Z,26.20
2018-06-05T07:50:50.989Z,24.90
2018-06-05T07:52:43.754Z,25.00
2018-06-05T07:53:43.641Z,25.30
2018-06-05T07:55:36.546Z,24.90
2018-06-05T07:56:36.283Z,23.80
2018-06-05T07:58:29.122Z,24.30
2018-06-05T07:59:29.033Z,23.90
2018-06-05T08:01:21.805Z,22.90
2018-06-05T08:02:21.684Z,22.80
2018-06-05T08:04:14.447Z,23.80
2018-06-05T08:05:14.337Z,23.20
2018-06-05T08:07:07.220Z,23.00
2018-06-05T08:08:07.080Z,24.60
2018-06-05T08:09:59.931Z,23.40
2018-06-05T08:10:59.731Z,24.10
2018-06-05T08:12:52.602Z,22.70
2018-06-05T08:13:52.474Z,23.40
2018-06-05T08:15:45.318Z,23.70
2018-06-05T08:16:45.226Z,23.40
2018-06-05T08:18:38.001Z,23.00
2018-06-05T08:19:37.887Z,22.60
2018-06-05T08:21:30.716Z,25.30
2018-06-05T08:22:30.625Z,25.30
2018-06-05T08:24:23.561Z,25.00
2018-06-05T08:25:23.273Z,25.10
2018-06-05T08:27:16.129Z,24.30
2018-06-05T08:28:16.017Z,24.70
2018-06-05T08:30:09.309Z,24.60
2018-06-05T08:31:09.178Z,23.30
2018-06-05T08:33:02.017Z,23.50
2018-06-05T08:34:01.934Z,23.20
2018-06-05T08:35:54.696Z,23.50
2018-06-05T08:36:54.580Z,23.10
2018-06-05T08:38:47.417Z,23.80
2018-06-05T08:39:47.321Z,23.60
2018-06-05T08:41:40.099Z,22.40
2018-06-05T08:42:39.969Z,22.80
2018-06-05T08:44:32.817Z,22.90
2018-06-05T08:45:32.722Z,22.80
2018-06-05T08:47:25.585Z,22.20
2018-06-05T08:48:25.495Z,22.80
2018-06-05T08:50:18.227Z,22.00
2018-06-05T08:51:18.117Z,21.80
2018-06-05T08:53:10.992Z,22.20
2018-06-05T08:54:10.876Z,22.50
2018-06-05T08:56:03.721Z,23.50
2018-06-05T08:57:03.633Z,22.70
2018-06-05T08:58:56.509Z,23.00
2018-06-05T08:59:56.385Z,22.80
2018-06-05T09:01:49.269Z,22.90
2018-06-05T09:02:49.118Z,23.90
2018-06-05T09:04:41.910Z,25.00
2018-06-05T09:05:41.772Z,25.40
2018-06-05T09:07:34.635Z,24.80
2018-06-05T09:08:34.526Z,25.20
2018-06-05T09:10:27.371Z,26.20
2018-06-05T09:11:27.262Z,25.30
2018-06-05T09:13:19.997Z,24.90
2018-06-05T09:14:19.919Z,27.40
2018-06-05T09:16:13.694Z,26.00
2018-06-05T09:17:13.583Z,25.80
2018-06-05T09:19:06.433Z,26.90
2018-06-05T09:20:06.329Z,25.80
2018-06-05T09:21:59.210Z,26.40
2018-06-05T09:22:59.092Z,25.40
2018-06-05T09:24:51.835Z,25.40
2018-06-05T09:25:51.733Z,23.80
2018-06-05T09:27:44.592Z,24.50
2018-06-05T09:28:44.469Z,25.60
2018-06-05T09:30:37.427Z,24.40
2018-06-05T09:31:37.325Z,24.20
2018-06-05T09:33:30.204Z,25.00
2018-06-05T09:34:30.123Z,24.40
2018-06-05T09:36:22.929Z,24.50
2018-06-05T09:37:22.847Z,24.40
2018-06-05T09:39:15.709Z,24.20
2018-06-05T09:40:15.580Z,23.70
2018-06-05T09:42:08.441Z,25.30
2018-06-05T09:43:08.341Z,24.70
2018-06-05T09:45:01.197Z,24.90
2018-06-05T09:46:01.082Z,24.00
2018-06-05T09:47:53.921Z,24.20
2018-06-05T09:48:53.849Z,24.30
2018-06-05T09:50:46.710Z,24.30
2018-06-05T09:51:46.584Z,24.50
2018-06-05T09:53:39.419Z,25.40
2018-06-05T09:54:39.322Z,24.70
2018-06-05T09:56:32.190Z,26.00
2018-06-05T09:57:32.077Z,25.40
2018-06-05T09:59:24.935Z,25.40
2018-06-05T10:00:24.822Z,25.30
2018-06-05T10:02:17.697Z,25.70
2018-06-05T10:03:17.570Z,25.70
2018-06-05T10:05:11.930Z,24.90
2018-06-05T10:06:10.316Z,25.10
2018-06-05T10:08:03.221Z,24.50
2018-06-05T10:09:03.074Z,24.00
2018-06-05T10:10:55.922Z,25.60
2018-06-05T10:11:55.839Z,25.10
2018-06-05T10:13:48.687Z,26.20
2018-06-05T10:14:48.590Z,24.90
2018-06-05T10:16:41.531Z,25.10
2018-06-05T10:17:41.450Z,26.00
2018-06-05T10:19:34.269Z,26.90
2018-06-05T10:20:34.177Z,25.30
2018-06-05T10:22:27.527Z,25.90
2018-06-05T10:23:27.435Z,26.40
2018-06-05T10:25:20.310Z,24.70
2018-06-05T10:26:20.181Z,25.70
2018-06-05T10:28:13.568Z,25.20
2018-06-05T10:29:13.453Z,25.80
2018-06-05T10:31:06.306Z,26.40
2018-06-05T10:32:06.271Z,25.50
2018-06-05T10:33:59.563Z,24.40
2018-06-05T10:34:59.485Z,24.30
2018-06-05T10:36:52.310Z,23.50
2018-06-05T10:37:52.213Z,22.50
2018-06-05T10:39:45.070Z,25.00
2018-06-05T10:40:44.955Z,24.60
2018-06-05T10:42:38.017Z,24.90
2018-06-05T10:43:37.910Z,26.70
2018-06-05T10:45:30.770Z,24.70
2018-06-05T10:46:30.671Z,24.10
2018-06-05T10:48:23.504Z,24.60
2018-06-05T10:49:23.430Z,25.70
2018-06-05T10:51:16.279Z,25.10
2018-06-05T10:52:16.166Z,24.60
2018-06-05T10:54:09.045Z,24.80
2018-06-05T10:55:08.912Z,23.80
2018-06-05T10:57:01.767Z,24.10
2018-06-05T10:58:01.658Z,24.60
2018-06-05T10:59:54.522Z,24.70
2018-06-05T11:00:54.430Z,24.50
2018-06-05T11:02:47.282Z,24.60
2018-06-05T11:03:47.156Z,24.80
2018-06-05T11:05:40.049Z,25.50
2018-06-05T11:06:39.908Z,25.60
2018-06-05T11:08:33.696Z,25.50
2018-06-05T11:09:32.674Z,25.90
2018-06-05T11:11:25.534Z,24.60
2018-06-05T11:12:25.422Z,26.20
2018-06-05T11:14:18.247Z,25.20
2018-06-05T11:15:18.153Z,25.60
2018-06-05T11:17:11.027Z,25.20
2018-06-05T11:18:10.919Z,26.10
2018-06-05T11:20:03.767Z,24.10
2018-06-05T11:21:03.663Z,24.30
2018-06-05T11:22:56.512Z,23.30
2018-06-05T11:23:56.404Z,22.80
2018-06-05T11:25:49.777Z,22.90
2018-06-05T11:26:49.671Z,22.70
2018-06-05T11:28:43.032Z,25.60
2018-06-05T11:29:42.927Z,24.10
2018-06-05T11:31:35.807Z,24.70
2018-06-05T11:32:35.682Z,24.20
2018-06-05T11:34:28.535Z,23.80
2018-06-05T11:35:28.428Z,22.60
2018-06-05T11:37:21.310Z,22.90
2018-06-05T11:38:21.174Z,23.20
2018-06-05T11:40:14.169Z,23.60
2018-06-05T11:41:14.036Z,22.80
2018-06-05T11:43:08.400Z,23.60
2018-06-05T11:44:08.332Z,23.80
2018-06-05T11:46:01.193Z,22.50
2018-06-05T11:47:01.072Z,23.70
2018-06-05T11:48:53.906Z,22.30
2018-06-05T11:49:53.826Z,21.20
2018-06-05T11:51:46.674Z,21.10
2018-06-05T11:52:46.573Z,22.10
2018-06-05T11:54:39.402Z,21.80
2018-06-05T11:55:39.313Z,22.60
2018-06-05T11:57:32.319Z,22.00
2018-06-05T11:58:32.175Z,22.60
2018-06-05T12:00:25.020Z,21.10
2018-06-05T12:01:24.911Z,21.90
2018-06-05T12:03:18.692Z,21.90
2018-06-05T12:04:18.621Z,21.50
2018-06-05T12:06:11.469Z,21.20
2018-06-05T12:07:11.335Z,21.40
2018-06-05T12:09:04.278Z,20.90
2018-06-05T12:10:04.217Z,20.60
2018-06-05T12:11:57.034Z,20.50
2018-06-05T12:12:56.938Z,20.00
2018-06-05T12:14:49.795Z,21.10
2018-06-05T12:15:49.683Z,20.50
2018-06-05T12:17:42.559Z,20.00
2018-06-05T12:18:42.447Z,18.90
2018-06-05T12:20:35.290Z,20.00
2018-06-05T12:21:35.202Z,19.30
2018-06-05T12:23:28.026Z,20.40
2018-06-05T12:24:27.934Z,19.60
2018-06-05T12:26:20.799Z,20.10
2018-06-05T12:27:20.685Z,20.30
2018-06-05T12:29:13.526Z,20.00
2018-06-05T12:30:13.459Z,19.00
2018-06-05T12:32:06.360Z,19.90
2018-06-05T12:33:06.260Z,19.20
2018-06-05T12:34:59.038Z,19.80
2018-06-05T12:35:58.957Z,22.00
2018-06-05T12:37:51.790Z,18.30
2018-06-05T12:38:51.681Z,18.00
2018-06-05T12:40:44.553Z,18.20
2018-06-05T12:41:44.477Z,19.10
2018-06-05T12:43:37.273Z,18.70
2018-06-05T12:44:37.184Z,18.80
2018-06-05T12:46:30.041Z,18.70
2018-06-05T12:47:29.946Z,18.30
2018-06-05T12:49:22.776Z,18.20
2018-06-05T12:50:22.717Z,18.40
2018-06-05T12:52:15.569Z,42.30
2018-06-05T12:53:15.434Z,18.60
2018-06-05T12:55:08.288Z,18.30
2018-06-05T12:56:08.186Z,18.30
2018-06-05T12:58:01.577Z,17.60
2018-06-05T12:59:01.469Z,20.30
2018-06-05T13:00:54.813Z,20.20
2018-06-05T13:01:54.706Z,18.30
2018-06-05T13:03:47.671Z,18.20
2018-06-05T13:04:47.558Z,17.40
2018-06-05T13:06:40.420Z,18.30
2018-06-05T13:07:40.303Z,18.40
2018-06-05T13:09:33.168Z,19.50
2018-06-05T13:10:33.093Z,23.20
2018-06-05T13:12:25.927Z,19.80
2018-06-05T13:13:25.828Z,21.80
2018-06-05T13:15:18.643Z,17.10
2018-06-05T13:16:18.557Z,18.30
2018-06-05T13:18:11.929Z,17.80
2018-06-05T13:19:11.817Z,17.90
2018-06-05T13:21:04.777Z,18.30
2018-06-05T13:22:04.719Z,19.00
2018-06-05T13:23:57.615Z,17.30
2018-06-05T13:24:57.536Z,17.40
2018-06-05T13:26:50.504Z,16.30
2018-06-05T13:27:50.380Z,15.20
2018-06-05T13:29:43.273Z,16.10
2018-06-05T13:30:43.123Z,17.10
2018-06-05T13:32:35.996Z,15.90
2018-06-05T13:33:35.914Z,15.50
2018-06-05T13:35:29.228Z,15.20
2018-06-05T13:36:29.158Z,14.00
2018-06-05T13:38:22.006Z,15.10
2018-06-05T13:39:21.891Z,15.10
2018-06-05T13:41:14.844Z,15.70
2018-06-05T13:42:14.751Z,17.10
2018-06-05T13:44:07.697Z,20.80
2018-06-05T13:45:07.586Z,15.90
2018-06-05T13:47:00.764Z,15.30
2018-06-05T13:48:00.646Z,16.40
2018-06-05T13:49:53.622Z,15.70
2018-06-05T13:50:53.527Z,15.10
2018-06-05T13:52:46.464Z,65.60
2018-06-05T13:53:46.350Z,26.10
2018-06-05T13:55:39.290Z,49.80
2018-06-05T13:56:39.211Z,16.50
2018-06-05T13:58:32.161Z,17.00
2018-06-05T13:59:32.061Z,17.00
2018-06-05T14:01:25.011Z,15.80
2018-06-05T14:02:24.901Z,16.10
2018-06-05T14:04:17.872Z,15.80
2018-06-05T14:05:17.785Z,15.70
2018-06-05T14:07:10.730Z,15.90
2018-06-05T14:08:10.624Z,16.40
2018-06-05T14:10:03.555Z,26.30
2018-06-05T14:11:03.453Z,16.70
2018-06-05T14:12:56.441Z,17.40
2018-06-05T14:13:56.322Z,16.60
2018-06-05T14:15:49.278Z,17.80
2018-06-05T14:16:49.173Z,17.00
2018-06-05T14:18:42.122Z,18.20
2018-06-05T14:19:42.033Z,33.80
2018-06-05T14:21:34.983Z,52.20
2018-06-05T14:22:34.888Z,19.60
2018-06-05T14:24:27.826Z,17.30
2018-06-05T14:25:27.731Z,18.80
2018-06-05T14:27:20.707Z,17.00
2018-06-05T14:28:20.587Z,17.40
2018-06-05T14:30:13.539Z,17.10
2018-06-05T14:31:13.435Z,16.10
2018-06-05T14:33:06.432Z,23.40
2018-06-05T14:34:06.321Z,18.70
2018-06-05T14:35:59.220Z,18.10
2018-06-05T14:36:59.152Z,16.80
2018-06-05T14:38:52.655Z,18.70
2018-06-05T14:39:52.488Z,16.90
2018-06-05T14:41:45.467Z,17.00
2018-06-05T14:42:45.368Z,17.60
2018-06-05T14:44:38.320Z,16.90
2018-06-05T14:45:38.240Z,16.10
2018-06-05T14:47:31.175Z,15.40
2018-06-05T14:48:31.059Z,16.10
2018-06-05T14:50:24.286Z,17.10
2018-06-05T14:51:23.903Z,17.50
2018-06-05T14:53:16.872Z,16.20
2018-06-05T14:54:16.765Z,15.90
2018-06-05T14:56:09.702Z,14.90
2018-06-05T14:57:09.604Z,15.90
2018-06-05T14:59:02.573Z,15.30
2018-06-05T15:00:02.475Z,14.80
2018-06-05T15:01:55.458Z,14.60
2018-06-05T15:02:55.331Z,16.80
2018-06-05T15:04:48.264Z,14.70
2018-06-05T15:05:48.162Z,14.20
2018-06-05T15:07:41.122Z,13.50
2018-06-05T15:08:41.014Z,12.90
2018-06-05T15:10:33.955Z,13.80
2018-06-05T15:11:33.875Z,16.00
2018-06-05T15:13:26.826Z,14.90
2018-06-05T15:14:26.726Z,14.40
2018-06-05T15:16:19.671Z,13.90
2018-06-05T15:17:19.625Z,14.20
2018-06-05T15:19:12.524Z,14.50
2018-06-05T15:20:12.439Z,13.20
2018-06-05T15:22:06.297Z,13.40
2018-06-05T15:23:06.212Z,13.60
2018-06-05T15:24:59.169Z,12.40
2018-06-05T15:25:59.055Z,12.10
2018-06-05T15:27:52.003Z,12.90
2018-06-05T15:28:51.924Z,12.00
2018-06-05T15:30:44.802Z,14.90
2018-06-05T15:31:44.653Z,13.90
2018-06-05T15:33:37.512Z,13.60
2018-06-05T15:34:37.405Z,13.60
2018-06-05T15:36:30.244Z,12.50
2018-06-05T15:37:30.155Z,12.30
2018-06-05T15:39:23.008Z,11.90
2018-06-05T15:40:22.898Z,13.30
2018-06-05T15:42:15.749Z,14.10
2018-06-05T15:43:15.649Z,14.00
2018-06-05T15:45:08.501Z,15.00
2018-06-05T15:46:08.405Z,13.90
2018-06-05T15:48:01.257Z,13.50
2018-06-05T15:49:01.153Z,13.50
2018-06-05T15:50:54.017Z,13.90
2018-06-05T15:51:53.902Z,13.00
2018-06-05T15:53:46.746Z,15.30
2018-06-05T15:54:46.654Z,13.50
2018-06-05T15:56:40.022Z,14.20
2018-06-05T15:57:39.913Z,14.00
2018-06-05T15:59:32.781Z,14.90
2018-06-05T16:00:32.670Z,14.60
2018-06-05T16:02:26.052Z,14.60
2018-06-05T16:03:25.914Z,14.30
2018-06-05T16:05:18.767Z,12.00
2018-06-05T16:06:18.670Z,12.50
2018-06-05T16:08:11.522Z,12.90
2018-06-05T16:09:11.427Z,13.90
2018-06-05T16:11:04.276Z,13.40
2018-06-05T16:12:04.220Z,12.70
2018-06-05T16:13:57.122Z,13.10
2018-06-05T16:14:57.040Z,13.40
2018-06-05T16:16:49.954Z,13.80
2018-06-05T16:17:49.866Z,13.30
2018-06-05T16:19:43.259Z,13.30
2018-06-05T16:20:42.635Z,13.70
2018-06-05T16:22:35.482Z,13.30
2018-06-05T16:23:35.371Z,13.90
2018-06-05T16:25:28.215Z,12.70
2018-06-05T16:26:28.196Z,13.40
2018-06-05T16:28:20.972Z,12.70
2018-06-05T16:29:20.871Z,12.10
2018-06-05T16:31:13.711Z,13.10
2018-06-05T16:32:13.627Z,12.70
2018-06-05T16:34:06.547Z,13.70
2018-06-05T16:35:06.379Z,12.70
2018-06-05T16:36:59.209Z,12.60
2018-06-05T16:37:59.121Z,12.90
2018-06-05T16:39:51.962Z,12.20
2018-06-05T16:40:51.883Z,13.50
2018-06-05T16:42:44.733Z,11.40
2018-06-05T16:43:44.622Z,11.50
2018-06-05T16:45:37.980Z,12.10
2018-06-05T16:46:37.888Z,12.60
2018-06-05T16:48:30.731Z,12.60
2018-06-05T16:49:30.649Z,12.40
2018-06-05T16:51:23.464Z,11.20
2018-06-05T16:52:23.381Z,11.90
2018-06-05T16:54:16.279Z,12.10
2018-06-05T16:55:16.140Z,11.70
2018-06-05T16:57:08.976Z,11.50
2018-06-05T16:58:08.895Z,11.20
2018-06-05T17:00:01.725Z,11.80
2018-06-05T17:01:01.657Z,11.10
2018-06-05T17:02:54.489Z,10.90
2018-06-05T17:03:54.409Z,11.60
2018-06-05T17:05:47.304Z,12.10
2018-06-05T17:06:47.188Z,12.00
2018-06-05T17:08:40.015Z,10.90
2018-06-05T17:09:39.888Z,10.80
2018-06-05T17:11:32.714Z,10.30
2018-06-05T17:12:32.669Z,10.40
2018-06-05T17:14:25.483Z,10.90
2018-06-05T17:15:25.411Z,11.00
2018-06-05T17:17:18.237Z,11.00
2018-06-05T17:18:18.138Z,10.20
2018-06-05T17:20:10.961Z,9.60
2018-06-05T17:21:10.888Z,9.70
2018-06-05T17:23:03.747Z,10.50
2018-06-05T17:24:03.645Z,9.30
2018-06-05T17:25:56.475Z,10.50
2018-06-05T17:26:56.396Z,10.20
2018-06-05T17:28:49.258Z,10.90
2018-06-05T17:29:49.130Z,10.80
2018-06-05T17:31:41.969Z,10.20
2018-06-05T17:32:41.909Z,10.00
2018-06-05T17:34:34.720Z,12.30
2018-06-05T17:35:34.638Z,10.00
2018-06-05T17:37:27.484Z,10.00
2018-06-05T17:38:27.403Z,9.20
2018-06-05T17:40:20.382Z,8.90
2018-06-05T17:41:20.135Z,8.40
2018-06-05T17:43:12.979Z,11.10
2018-06-05T17:44:12.887Z,8.50
2018-06-05T17:46:05.751Z,10.00
2018-06-05T17:47:05.664Z,8.40
2018-06-05T17:48:58.474Z,8.20
2018-06-05T17:49:58.388Z,7.80
2018-06-05T17:51:51.233Z,9.00
2018-06-05T17:52:51.150Z,8.00
2018-06-05T17:54:43.978Z,7.80
2018-06-05T17:55:43.889Z,7.90
2018-06-05T17:57:36.706Z,8.10
2018-06-05T17:58:36.714Z,7.60
2018-06-05T18:00:29.477Z,9.00
2018-06-05T18:01:29.391Z,7.60
2018-06-05T18:03:22.223Z,8.00
2018-06-05T18:04:22.138Z,8.20
2018-06-05T18:06:15.019Z,8.40
2018-06-05T18:07:14.896Z,7.80
2018-06-05T18:09:07.748Z,9.60
2018-06-05T18:10:07.637Z,8.20
2018-06-05T18:12:00.471Z,9.60
2018-06-05T18:13:00.398Z,8.50
2018-06-05T18:14:53.235Z,8.20
2018-06-05T18:15:53.127Z,8.70
2018-06-05T18:17:45.967Z,9.30
2018-06-05T18:18:45.891Z,9.20
2018-06-05T18:20:38.752Z,9.00
2018-06-05T18:21:38.632Z,9.10
2018-06-05T18:23:31.469Z,9.90
2018-06-05T18:24:31.375Z,9.00
2018-06-05T18:26:24.754Z,9.40
2018-06-05T18:27:24.649Z,9.00
2018-06-05T18:29:17.493Z,9.00
2018-06-05T18:30:17.427Z,9.40
2018-06-05T18:32:10.211Z,9.30
2018-06-05T18:33:10.169Z,9.30
2018-06-05T18:35:02.985Z,9.50